createdAt,value
2023-05-06T00:00:35.774Z,21.00
2023-05-06T00:01:35.833Z,21.00
2023-05-06T00:02:35.966Z,21.00
2023-05-06T00:03:36.060Z,21.00
2023-05-06T00:04:35.983Z,21.00
2023-05-06T00:05:36.039Z,21.00
2023-05-06T00:06:36.068Z,20.99
2023-05-06T00:07:36.121Z,21.00
2023-05-06T00:08:36.179Z,20.99
2023-05-06T00:09:36.254Z,21.00
2023-05-06T00:10:36.309Z,21.00
2023-05-06T00:11:36.368Z,21.00
2023-05-06T00:12:36.483Z,21.00
2023-05-06T00:13:36.430Z,21.00
2023-05-06T00:14:36.514Z,21.00
2023-05-06T00:15:36.553Z,20.99
2023-05-06T00:16:36.681Z,20.99
2023-05-06T00:17:36.903Z,20.99
2023-05-06T00:18:36.743Z,20.99
2023-05-06T00:19:36.776Z,20.99
2023-05-06T00:20:36.818Z,20.99
2023-05-06T00:21:36.840Z,20.99
2023-05-06T00:22:36.927Z,20.98
2023-05-06T00:23:36.980Z,20.98
2023-05-06T00:24:37.064Z,20.98
2023-05-06T00:25:37.081Z,20.97
2023-05-06T00:26:37.146Z,20.97
2023-05-06T00:27:37.187Z,20.97
2023-05-06T00:28:37.242Z,20.97
2023-05-06T00:29:37.318Z,20.97
2023-05-06T00:30:37.372Z,20.97
2023-05-06T00:31:37.411Z,20.97
2023-05-06T00:32:37.509Z,20.96
2023-05-06T00:33:37.534Z,20.97
2023-05-06T00:34:37.571Z,20.96
2023-05-06T00:35:37.617Z,20.96
2023-05-06T00:36:37.688Z,20.96
2023-05-06T00:37:37.756Z,20.96
2023-05-06T00:38:37.792Z,20.95
2023-05-06T00:39:37.820Z,20.96
2023-05-06T00:40:37.886Z,20.96
2023-05-06T00:41:37.923Z,20.95
2023-05-06T00:42:37.998Z,20.96
2023-05-06T00:43:38.023Z,20.95
2023-05-06T00:44:38.150Z,20.95
2023-05-06T00:45:38.181Z,20.95
2023-05-06T00:46:38.225Z,20.95
2023-05-06T00:47:38.297Z,20.95
2023-05-06T00:48:38.337Z,20.95
2023-05-06T00:49:38.356Z,20.95
2023-05-06T00:50:38.421Z,20.94
2023-05-06T00:51:38.480Z,20.93
2023-05-06T00:52:38.649Z,20.94
2023-05-06T00:53:38.541Z,20.94
2023-05-06T00:54:38.616Z,20.93
2023-05-06T00:55:38.674Z,20.93
2023-05-06T00:56:38.713Z,20.93
2023-05-06T00:57:38.750Z,20.93
2023-05-06T00:58:38.793Z,20.92
2023-05-06T00:59:38.863Z,20.93
2023-05-06T01:00:38.912Z,20.92
2023-05-06T01:01:39.059Z,20.93
2023-05-06T01:02:46.987Z,20.93
2023-05-06T01:03:40.131Z,20.93
2023-05-06T01:04:39.057Z,20.93
2023-05-06T01:05:38.965Z,20.93
2023-05-06T01:06:38.981Z,20.93
2023-05-06T01:07:38.997Z,20.94
2023-05-06T01:08:38.999Z,20.93
2023-05-06T01:09:38.983Z,20.92
2023-05-06T01:10:38.991Z,20.92
2023-05-06T01:11:38.957Z,20.92
2023-05-06T01:12:38.962Z,20.93
2023-05-06T01:13:39.027Z,20.92
2023-05-06T01:14:39.102Z,20.92
2023-05-06T01:15:39.108Z,20.93
2023-05-06T01:16:39.342Z,20.92
2023-05-06T01:17:39.271Z,20.92
2023-05-06T01:18:39.285Z,20.93
2023-05-06T01:19:39.352Z,20.92
2023-05-06T01:20:39.432Z,20.93
2023-05-06T01:21:39.455Z,20.92
2023-05-06T01:22:39.554Z,20.92
2023-05-06T01:23:39.566Z,20.92
2023-05-06T01:24:39.640Z,20.92
2023-05-06T01:25:39.684Z,20.91
2023-05-06T01:26:39.733Z,20.91
2023-05-06T01:27:39.808Z,20.91
2023-05-06T01:28:39.855Z,20.91
2023-05-06T01:29:39.917Z,20.91
2023-05-06T01:30:39.899Z,20.90
2023-05-06T01:31:40.020Z,20.90
2023-05-06T01:32:40.121Z,20.90
2023-05-06T01:33:40.097Z,20.89
2023-05-06T01:34:40.137Z,20.90
2023-05-06T01:35:40.173Z,20.89
2023-05-06T01:36:40.254Z,20.90
2023-05-06T01:37:40.389Z,20.90
2023-05-06T01:38:40.357Z,20.90
2023-05-06T01:39:40.409Z,20.91
2023-05-06T01:40:40.445Z,20.90
2023-05-06T01:41:40.517Z,20.89
2023-05-06T01:42:40.950Z,20.90
2023-05-06T01:43:40.638Z,20.90
2023-05-06T01:44:40.689Z,20.89
2023-05-06T01:45:40.727Z,20.88
2023-05-06T01:46:40.883Z,20.89
2023-05-06T01:47:40.846Z,20.88
2023-05-06T01:48:40.881Z,20.88
2023-05-06T01:49:40.874Z,20.89
2023-05-06T01:50:40.943Z,20.89
2023-05-06T01:51:41.005Z,20.89
2023-05-06T01:52:41.048Z,20.89
2023-05-06T01:53:41.045Z,20.89
2023-05-06T01:54:41.126Z,20.88
2023-05-06T01:55:41.178Z,20.88
2023-05-06T01:56:41.304Z,20.89
2023-05-06T01:57:41.243Z,20.88
2023-05-06T01:58:41.307Z,20.89
2023-05-06T01:59:41.337Z,20.88
2023-05-06T02:00:41.381Z,20.88
2023-05-06T02:01:41.446Z,20.88
2023-05-06T02:02:41.615Z,20.88
2023-05-06T02:03:41.608Z,20.87
2023-05-06T02:04:41.606Z,20.87
2023-05-06T02:05:41.575Z,20.87
2023-05-06T02:06:41.649Z,20.87
2023-05-06T02:07:41.729Z,20.87
2023-05-06T02:08:41.724Z,20.87
2023-05-06T02:09:41.767Z,20.86
2023-05-06T02:10:41.852Z,20.86
2023-05-06T02:11:41.889Z,20.86
2023-05-06T02:12:41.963Z,20.87
2023-05-06T02:13:41.966Z,20.85
2023-05-06T02:14:42.013Z,20.86
2023-05-06T02:15:42.004Z,20.86
2023-05-06T02:16:42.103Z,20.86
2023-05-06T02:17:42.152Z,20.86
2023-05-06T02:18:42.208Z,20.86
2023-05-06T02:19:42.220Z,20.86
2023-05-06T02:20:42.267Z,20.86
2023-05-06T02:21:42.305Z,20.86
2023-05-06T02:22:42.310Z,20.86
2023-05-06T02:23:42.386Z,20.87
2023-05-06T02:24:42.418Z,20.86
2023-05-06T02:25:42.461Z,20.85
2023-05-06T02:26:42.498Z,20.86
2023-05-06T02:27:42.558Z,20.85
2023-05-06T02:28:42.677Z,20.85
2023-05-06T02:29:42.594Z,20.85
2023-05-06T02:30:42.735Z,20.85
2023-05-06T02:31:42.822Z,20.85
2023-05-06T02:32:42.962Z,20.84
2023-05-06T02:33:42.781Z,20.84
2023-05-06T02:34:42.843Z,20.84
2023-05-06T02:35:42.824Z,20.85
2023-05-06T02:36:42.925Z,20.84
2023-05-06T02:37:42.895Z,20.83
2023-05-06T02:38:42.944Z,20.84
2023-05-06T02:39:42.952Z,20.84
2023-05-06T02:40:42.987Z,20.83
2023-05-06T02:41:43.009Z,20.84
2023-05-06T02:42:43.036Z,20.84
2023-05-06T02:43:43.030Z,20.84
2023-05-06T02:44:43.082Z,20.84
2023-05-06T02:45:43.170Z,20.84
2023-05-06T02:46:43.130Z,20.84
2023-05-06T02:47:43.189Z,20.83
2023-05-06T02:48:43.461Z,20.83
2023-05-06T02:49:43.256Z,20.83
2023-05-06T02:50:43.291Z,20.83
2023-05-06T02:51:43.332Z,20.83
2023-05-06T02:52:43.381Z,20.84
2023-05-06T02:53:43.434Z,20.83
2023-05-06T02:54:43.445Z,20.83
2023-05-06T02:55:43.488Z,20.83
2023-05-06T02:56:43.523Z,20.83
2023-05-06T02:57:43.551Z,20.82
2023-05-06T02:58:43.572Z,20.82
2023-05-06T02:59:43.602Z,20.83
2023-05-06T03:00:43.659Z,20.83
2023-05-06T03:01:43.640Z,20.82
2023-05-06T03:02:43.715Z,20.82
2023-05-06T03:03:43.832Z,20.82
2023-05-06T03:04:43.729Z,20.82
2023-05-06T03:05:43.767Z,20.82
2023-05-06T03:06:43.764Z,20.82
2023-05-06T03:07:43.821Z,20.81
2023-05-06T03:08:43.889Z,20.82
2023-05-06T03:09:43.877Z,20.82
2023-05-06T03:10:44.408Z,20.81
2023-05-06T03:11:43.905Z,20.81
2023-05-06T03:12:43.979Z,20.82
2023-05-06T03:13:43.982Z,20.82
2023-05-06T03:14:44.001Z,20.82
2023-05-06T03:15:44.030Z,20.81
2023-05-06T03:16:44.090Z,20.82
2023-05-06T03:17:44.124Z,20.81
2023-05-06T03:18:44.168Z,20.81
2023-05-06T03:19:44.172Z,20.81
2023-05-06T03:20:44.206Z,20.80
2023-05-06T03:21:44.287Z,20.80
2023-05-06T03:22:44.258Z,20.80
2023-05-06T03:23:44.287Z,20.80
2023-05-06T03:24:44.530Z,20.80
2023-05-06T03:25:44.352Z,20.80
2023-05-06T03:26:44.345Z,20.80
2023-05-06T03:27:44.369Z,20.80
2023-05-06T03:28:44.408Z,20.80
2023-05-06T03:29:44.436Z,20.81
2023-05-06T03:30:44.453Z,20.80
2023-05-06T03:31:44.620Z,20.80
2023-05-06T03:32:44.611Z,20.80
2023-05-06T03:33:44.598Z,20.80
2023-05-06T03:34:44.628Z,20.80
2023-05-06T03:35:44.631Z,20.79
2023-05-06T03:36:44.632Z,20.80
2023-05-06T03:37:44.673Z,20.80
2023-05-06T03:38:44.703Z,20.79
2023-05-06T03:39:44.766Z,20.80
2023-05-06T03:40:44.758Z,20.79
2023-05-06T03:41:44.775Z,20.79
2023-05-06T03:42:45.420Z,20.79
2023-05-06T03:43:44.845Z,20.79
2023-05-06T03:44:44.887Z,20.79
2023-05-06T03:45:44.902Z,20.78
2023-05-06T03:46:44.966Z,20.79
2023-05-06T03:47:45.018Z,20.79
2023-05-06T03:48:44.983Z,20.78
2023-05-06T03:49:45.020Z,20.77
2023-05-06T03:50:45.092Z,20.78
2023-05-06T03:51:45.071Z,20.78
2023-05-06T03:52:45.088Z,20.79
2023-05-06T03:53:45.121Z,20.79
2023-05-06T03:54:45.120Z,20.79
2023-05-06T03:55:45.173Z,20.79
2023-05-06T03:56:45.265Z,20.78
2023-05-06T03:57:45.233Z,20.78
2023-05-06T03:58:45.275Z,20.78
2023-05-06T03:59:45.295Z,20.78
2023-05-06T04:00:45.397Z,20.77
2023-05-06T04:01:45.391Z,20.78
2023-05-06T04:02:45.421Z,20.77
2023-05-06T04:03:45.446Z,20.77
2023-05-06T04:04:45.415Z,20.77
2023-05-06T04:05:45.469Z,20.77
2023-05-06T04:06:45.524Z,20.78
2023-05-06T04:07:45.492Z,20.77
2023-05-06T04:08:45.960Z,20.78
2023-05-06T04:09:45.564Z,20.78
2023-05-06T04:10:45.624Z,20.77
2023-05-06T04:11:45.669Z,20.77
2023-05-06T04:12:45.794Z,20.77
2023-05-06T04:13:45.790Z,20.76
2023-05-06T04:14:45.797Z,20.76
2023-05-06T04:15:45.854Z,20.76
2023-05-06T04:16:45.991Z,20.77
2023-05-06T04:17:45.945Z,20.77
2023-05-06T04:18:45.964Z,20.76
2023-05-06T04:19:46.023Z,20.77
2023-05-06T04:20:46.067Z,20.77
2023-05-06T04:21:46.154Z,20.78
2023-05-06T04:22:46.173Z,20.77
2023-05-06T04:23:46.209Z,20.77
2023-05-06T04:24:46.256Z,20.78
2023-05-06T04:25:46.268Z,20.77
2023-05-06T04:26:46.298Z,20.78
2023-05-06T04:27:46.314Z,20.77
2023-05-06T04:28:46.513Z,20.77
2023-05-06T04:29:46.361Z,20.77
2023-05-06T04:30:46.400Z,20.76
2023-05-06T04:31:46.459Z,20.76
2023-05-06T04:32:46.454Z,20.76
2023-05-06T04:33:46.417Z,20.74
2023-05-06T04:34:46.467Z,20.75
2023-05-06T04:35:46.466Z,20.76
2023-05-06T04:36:46.487Z,20.74
2023-05-06T04:37:46.513Z,20.74
2023-05-06T04:38:46.529Z,20.74
2023-05-06T04:39:46.570Z,20.74
2023-05-06T04:40:46.569Z,20.75
2023-05-06T04:41:46.600Z,20.74
2023-05-06T04:42:46.626Z,20.75
2023-05-06T04:43:46.967Z,20.74
2023-05-06T04:44:46.701Z,20.74
2023-05-06T04:45:46.762Z,20.74
2023-05-06T04:46:46.723Z,20.74
2023-05-06T04:47:46.775Z,20.74
2023-05-06T04:48:46.748Z,20.74
2023-05-06T04:49:46.786Z,20.74
2023-05-06T04:50:46.776Z,20.74
2023-05-06T04:51:46.830Z,20.73
2023-05-06T04:52:46.873Z,20.74
2023-05-06T04:53:46.867Z,20.74
2023-05-06T04:54:46.882Z,20.74
2023-05-06T04:55:46.896Z,20.73
2023-05-06T04:56:46.891Z,20.73
2023-05-06T04:57:46.950Z,20.73
2023-05-06T04:58:46.953Z,20.73
2023-05-06T04:59:46.965Z,20.72
2023-05-06T05:00:47.078Z,20.72
2023-05-06T05:01:47.135Z,20.72
2023-05-06T05:02:47.181Z,20.72
2023-05-06T05:03:47.070Z,20.73
2023-05-06T05:04:47.092Z,20.73
2023-05-06T05:05:47.092Z,20.73
2023-05-06T05:06:47.083Z,20.73
2023-05-06T05:07:47.141Z,20.72
2023-05-06T05:08:47.140Z,20.72
2023-05-06T05:09:47.171Z,20.72
2023-05-06T05:10:47.162Z,20.72
2023-05-06T05:11:47.158Z,20.72
2023-05-06T05:12:47.328Z,20.72
2023-05-06T05:13:47.222Z,20.73
2023-05-06T05:14:47.223Z,20.73
2023-05-06T05:15:47.225Z,20.71
2023-05-06T05:16:47.377Z,20.72
2023-05-06T05:17:47.343Z,20.71
2023-05-06T05:18:47.301Z,20.72
2023-05-06T05:19:47.332Z,20.71
2023-05-06T05:20:47.344Z,20.72
2023-05-06T05:21:47.368Z,20.72
2023-05-06T05:22:47.382Z,20.71
2023-05-06T05:23:47.384Z,20.72
2023-05-06T05:24:47.402Z,20.72
2023-05-06T05:25:47.406Z,20.72
2023-05-06T05:26:47.403Z,20.72
2023-05-06T05:27:47.447Z,20.72
2023-05-06T05:28:47.492Z,20.72
2023-05-06T05:29:47.453Z,20.71
2023-05-06T05:30:47.504Z,20.72
2023-05-06T05:31:47.501Z,20.72
2023-05-06T05:32:47.667Z,20.72
2023-05-06T05:33:47.609Z,20.72
2023-05-06T05:34:47.574Z,20.73
2023-05-06T05:35:47.620Z,20.72
2023-05-06T05:36:47.593Z,20.72
2023-05-06T05:37:47.637Z,20.72
2023-05-06T05:38:47.680Z,20.71
2023-05-06T05:39:47.721Z,20.72
2023-05-06T05:40:47.686Z,20.72
2023-05-06T05:41:47.698Z,20.73
2023-05-06T05:42:47.696Z,20.72
2023-05-06T05:43:47.690Z,20.71
2023-05-06T05:44:47.705Z,20.72
2023-05-06T05:45:47.745Z,20.73
2023-05-06T05:46:47.796Z,20.73
2023-05-06T05:47:47.766Z,20.73
2023-05-06T05:48:47.898Z,20.72
2023-05-06T05:49:47.779Z,20.72
2023-05-06T05:50:47.788Z,20.72
2023-05-06T05:51:47.825Z,20.72
2023-05-06T05:52:47.800Z,20.72
2023-05-06T05:53:47.803Z,20.72
2023-05-06T05:54:47.853Z,20.72
2023-05-06T05:55:47.832Z,20.71
2023-05-06T05:56:47.868Z,20.71
2023-05-06T05:57:47.888Z,20.71
2023-05-06T05:58:47.937Z,20.71
2023-05-06T05:59:47.895Z,20.72
2023-05-06T06:00:47.909Z,20.72
2023-05-06T06:01:47.920Z,20.71
2023-05-06T06:02:48.056Z,20.71
2023-05-06T06:03:48.601Z,20.71
2023-05-06T06:04:47.995Z,20.72
2023-05-06T06:05:48.019Z,20.72
2023-05-06T06:06:48.015Z,20.72
2023-05-06T06:07:48.022Z,20.72
2023-05-06T06:08:48.065Z,20.71
2023-05-06T06:09:48.066Z,20.72
2023-05-06T06:10:48.184Z,20.72
2023-05-06T06:11:48.099Z,20.71
2023-05-06T06:12:48.119Z,20.72
2023-05-06T06:13:48.135Z,20.71
2023-05-06T06:14:48.168Z,20.71
2023-05-06T06:15:48.110Z,20.71
2023-05-06T06:16:48.135Z,20.72
2023-05-06T06:17:48.192Z,20.71
2023-05-06T06:18:48.170Z,20.71
2023-05-06T06:19:48.190Z,20.71
2023-05-06T06:20:48.249Z,20.70
2023-05-06T06:21:48.201Z,20.71
2023-05-06T06:22:48.236Z,20.71
2023-05-06T06:23:48.204Z,20.71
2023-05-06T06:24:48.232Z,20.70
2023-05-06T06:25:48.253Z,20.71
2023-05-06T06:26:48.269Z,20.71
2023-05-06T06:27:48.258Z,20.71
2023-05-06T06:28:48.273Z,20.71
2023-05-06T06:29:48.294Z,20.71
2023-05-06T06:30:48.277Z,20.71
2023-05-06T06:31:48.383Z,20.71
2023-05-06T06:32:48.340Z,20.71
2023-05-06T06:33:48.317Z,20.72
2023-05-06T06:34:48.327Z,20.71
2023-05-06T06:35:48.340Z,20.70
2023-05-06T06:36:48.340Z,20.70
2023-05-06T06:37:48.372Z,20.70
2023-05-06T06:38:48.412Z,20.71
2023-05-06T06:39:48.398Z,20.71
2023-05-06T06:40:48.421Z,20.70
2023-05-06T06:41:48.465Z,20.71
2023-05-06T06:42:48.467Z,20.71
2023-05-06T06:43:48.509Z,20.70
2023-05-06T06:44:48.491Z,20.70
2023-05-06T06:45:48.619Z,20.70
2023-05-06T06:46:48.538Z,20.71
2023-05-06T06:47:48.612Z,20.71
2023-05-06T06:48:48.997Z,20.72
2023-05-06T06:49:48.564Z,20.71
2023-05-06T06:50:48.609Z,20.71
2023-05-06T06:51:48.603Z,20.71
2023-05-06T06:52:48.673Z,20.71
2023-05-06T06:53:48.612Z,20.70
2023-05-06T06:54:48.659Z,20.71
2023-05-06T06:55:48.670Z,20.71
2023-05-06T06:56:48.674Z,20.70
2023-05-06T06:57:48.693Z,20.70
2023-05-06T06:58:48.709Z,20.70
2023-05-06T06:59:48.714Z,20.70
2023-05-06T07:00:48.738Z,20.71
2023-05-06T07:01:48.715Z,20.72
2023-05-06T07:02:48.729Z,20.72
2023-05-06T07:03:48.811Z,20.72
2023-05-06T07:04:48.773Z,20.72
2023-05-06T07:05:48.785Z,20.72
2023-05-06T07:06:48.814Z,20.72
2023-05-06T07:07:48.817Z,20.72
2023-05-06T07:08:48.965Z,20.72
2023-05-06T07:09:48.847Z,20.72
2023-05-06T07:10:48.886Z,20.72
2023-05-06T07:11:48.868Z,20.72
2023-05-06T07:12:48.933Z,20.72
2023-05-06T07:13:48.929Z,20.72
2023-05-06T07:14:48.941Z,20.72
2023-05-06T07:15:48.922Z,20.72
2023-05-06T07:16:51.337Z,20.73
2023-05-06T07:17:49.159Z,20.73
2023-05-06T07:18:49.129Z,20.73
2023-05-06T07:19:49.161Z,20.74
2023-05-06T07:20:49.151Z,20.73
2023-05-06T07:21:49.196Z,20.73
2023-05-06T07:22:49.172Z,20.73
2023-05-06T07:23:49.192Z,20.73
2023-05-06T07:24:49.263Z,20.73
2023-05-06T07:25:49.263Z,20.72
2023-05-06T07:26:49.265Z,20.73
2023-05-06T07:27:49.270Z,20.73
2023-05-06T07:28:49.244Z,20.74
2023-05-06T07:29:49.230Z,20.73
2023-05-06T07:30:49.290Z,20.74
2023-05-06T07:31:49.234Z,20.73
2023-05-06T07:32:49.320Z,20.73
2023-05-06T07:33:49.306Z,20.72
2023-05-06T07:34:49.304Z,20.73
2023-05-06T07:35:49.318Z,20.73
2023-05-06T07:36:49.337Z,20.74
2023-05-06T07:37:49.334Z,20.75
2023-05-06T07:38:49.389Z,20.74
2023-05-06T07:39:49.409Z,20.75
2023-05-06T07:40:49.514Z,20.75
2023-05-06T07:41:49.400Z,20.76
2023-05-06T07:42:49.445Z,20.76
2023-05-06T07:43:49.506Z,20.77
2023-05-06T07:44:49.512Z,20.77
2023-05-06T07:45:49.624Z,20.77
2023-05-06T07:46:49.628Z,20.78
2023-05-06T07:47:49.670Z,20.77
2023-05-06T07:48:49.574Z,20.78
2023-05-06T07:49:49.634Z,20.79
2023-05-06T07:50:49.593Z,20.79
2023-05-06T07:51:49.609Z,20.79
2023-05-06T07:52:49.637Z,20.79
2023-05-06T07:53:49.693Z,20.78
2023-05-06T07:54:49.688Z,20.78
2023-05-06T07:55:49.696Z,20.78
2023-05-06T07:56:49.765Z,20.78
2023-05-06T07:57:49.723Z,20.78
2023-05-06T07:58:49.780Z,20.79
2023-05-06T07:59:49.789Z,20.77
2023-05-06T08:00:49.751Z,20.78
2023-05-06T08:01:50.109Z,20.78
2023-05-06T08:02:50.309Z,20.78
2023-05-06T08:03:50.029Z,20.78
2023-05-06T08:04:51.623Z,20.77
2023-05-06T08:05:49.958Z,20.77
2023-05-06T08:06:50.039Z,20.77
2023-05-06T08:07:50.059Z,20.77
2023-05-06T08:08:50.063Z,20.77
2023-05-06T08:09:50.089Z,20.77
2023-05-06T08:10:50.095Z,20.77
2023-05-06T08:11:50.165Z,20.77
2023-05-06T08:12:50.328Z,20.77
2023-05-06T08:13:50.178Z,20.78
2023-05-06T08:14:50.202Z,20.78
2023-05-06T08:15:50.236Z,20.78
2023-05-06T08:16:50.319Z,20.78
2023-05-06T08:17:50.275Z,20.78
2023-05-06T08:18:50.269Z,20.78
2023-05-06T08:19:50.324Z,20.78
2023-05-06T08:20:50.324Z,20.79
2023-05-06T08:21:50.341Z,20.79
2023-05-06T08:22:50.375Z,20.80
2023-05-06T08:23:50.394Z,20.80
2023-05-06T08:24:50.454Z,20.80
2023-05-06T08:25:50.447Z,20.80
2023-05-06T08:26:50.422Z,20.80
2023-05-06T08:27:50.431Z,20.80
2023-05-06T08:28:50.493Z,20.80
2023-05-06T08:29:50.483Z,20.80
2023-05-06T08:30:50.535Z,20.79
2023-05-06T08:31:50.561Z,20.79
2023-05-06T08:32:50.557Z,20.79
2023-05-06T08:33:51.953Z,20.80
2023-05-06T08:34:50.586Z,20.80
2023-05-06T08:35:50.579Z,20.80
2023-05-06T08:36:50.592Z,20.80
2023-05-06T08:37:50.575Z,20.80
2023-05-06T08:38:50.589Z,20.79
2023-05-06T08:39:50.527Z,20.79
2023-05-06T08:40:50.542Z,20.80
2023-05-06T08:41:50.543Z,20.80
2023-05-06T08:42:50.575Z,20.80
2023-05-06T08:43:50.591Z,20.79
2023-05-06T08:44:50.535Z,20.79
2023-05-06T08:45:50.559Z,20.79
2023-05-06T08:46:50.513Z,20.80
2023-05-06T08:47:50.660Z,20.79
2023-05-06T08:48:50.502Z,20.80
2023-05-06T08:49:50.474Z,20.80
2023-05-06T08:50:50.507Z,20.80
2023-05-06T08:51:50.479Z,20.80
2023-05-06T08:52:50.483Z,20.80
2023-05-06T08:53:50.433Z,20.80
2023-05-06T08:54:51.024Z,20.80
2023-05-06T08:55:50.450Z,20.80
2023-05-06T08:56:50.437Z,20.80
2023-05-06T08:57:50.450Z,20.81
2023-05-06T08:58:50.540Z,20.81
2023-05-06T08:59:50.425Z,20.81
2023-05-06T09:00:50.440Z,20.81
2023-05-06T09:01:50.431Z,20.81
2023-05-06T09:02:50.426Z,20.81
2023-05-06T09:03:50.387Z,20.82
2023-05-06T09:04:50.374Z,20.82
2023-05-06T09:05:50.358Z,20.82
2023-05-06T09:06:50.378Z,20.82
2023-05-06T09:07:50.335Z,20.82
2023-05-06T09:08:50.337Z,20.82
2023-05-06T09:09:50.368Z,20.82
2023-05-06T09:10:50.341Z,20.82
2023-05-06T09:11:50.308Z,20.82
2023-05-06T09:12:50.362Z,20.82
2023-05-06T09:13:50.305Z,20.82
2023-05-06T09:14:50.316Z,20.82
2023-05-06T09:15:50.284Z,20.82
2023-05-06T09:16:50.376Z,20.82
2023-05-06T09:17:50.368Z,20.82
2023-05-06T09:18:50.266Z,20.81
2023-05-06T09:19:50.274Z,20.81
2023-05-06T09:20:50.260Z,20.80
2023-05-06T09:21:50.238Z,20.81
2023-05-06T09:22:50.269Z,20.81
2023-05-06T09:23:50.226Z,20.80
2023-05-06T09:24:50.229Z,20.81
2023-05-06T09:25:50.234Z,20.80
2023-05-06T09:26:50.227Z,20.80
2023-05-06T09:27:50.223Z,20.80
2023-05-06T09:28:50.206Z,20.80
2023-05-06T09:29:50.223Z,20.80
2023-05-06T09:30:50.218Z,20.80
2023-05-06T09:31:50.205Z,20.80
2023-05-06T09:32:50.172Z,20.80
2023-05-06T09:33:50.194Z,20.79
2023-05-06T09:34:50.178Z,20.79
2023-05-06T09:35:50.212Z,20.79
2023-05-06T09:36:50.273Z,20.79
2023-05-06T09:37:50.297Z,20.79
2023-05-06T09:38:50.319Z,20.79
2023-05-06T09:39:50.325Z,20.79
2023-05-06T09:40:50.378Z,20.79
2023-05-06T09:41:50.403Z,20.79
2023-05-06T09:42:50.412Z,20.78
2023-05-06T09:43:50.498Z,20.79
2023-05-06T09:44:50.523Z,20.79
2023-05-06T09:45:50.591Z,20.79
2023-05-06T09:46:50.605Z,20.79
2023-05-06T09:47:50.661Z,20.79
2023-05-06T09:48:50.775Z,20.79
2023-05-06T09:49:50.705Z,20.79
2023-05-06T09:50:50.739Z,20.79
2023-05-06T09:51:50.785Z,20.79
2023-05-06T09:52:50.755Z,20.78
2023-05-06T09:53:50.836Z,20.79
2023-05-06T09:54:50.878Z,20.79
2023-05-06T09:55:50.866Z,20.79
2023-05-06T09:56:50.905Z,20.79
2023-05-06T09:57:50.899Z,20.79
2023-05-06T09:58:50.946Z,20.79
2023-05-06T09:59:50.973Z,20.79
2023-05-06T10:00:51.072Z,20.79
2023-05-06T10:01:51.021Z,20.79
2023-05-06T10:02:51.161Z,20.79
2023-05-06T10:03:51.216Z,20.79
2023-05-06T10:04:51.631Z,20.80
2023-05-06T10:05:51.127Z,20.79
2023-05-06T10:06:51.162Z,20.80
2023-05-06T10:07:51.210Z,20.80
2023-05-06T10:08:51.273Z,20.80
2023-05-06T10:09:51.342Z,20.80
2023-05-06T10:10:51.329Z,20.80
2023-05-06T10:11:51.392Z,20.80
2023-05-06T10:12:51.451Z,20.80
2023-05-06T10:13:51.438Z,20.81
2023-05-06T10:14:51.509Z,20.81
2023-05-06T10:15:51.556Z,20.81
2023-05-06T10:16:51.578Z,20.81
2023-05-06T10:17:51.688Z,20.81
2023-05-06T10:18:51.679Z,20.81
2023-05-06T10:19:51.716Z,20.81
2023-05-06T10:20:51.833Z,20.81
2023-05-06T10:21:51.763Z,20.81
2023-05-06T10:22:51.763Z,20.81
2023-05-06T10:23:51.823Z,20.81
2023-05-06T10:24:51.847Z,20.81
2023-05-06T10:25:51.835Z,20.81
2023-05-06T10:26:51.880Z,20.81
2023-05-06T10:27:51.961Z,20.81
2023-05-06T10:28:51.939Z,20.81
2023-05-06T10:29:52.026Z,20.82
2023-05-06T10:30:52.030Z,20.81
2023-05-06T10:31:52.191Z,20.82
2023-05-06T10:32:52.160Z,20.82
2023-05-06T10:33:52.145Z,20.82
2023-05-06T10:34:52.192Z,20.82
2023-05-06T10:35:52.219Z,20.83
2023-05-06T10:36:52.232Z,20.83
2023-05-06T10:37:52.256Z,20.83
2023-05-06T10:38:52.594Z,20.83
2023-05-06T10:39:52.376Z,20.84
2023-05-06T10:40:52.385Z,20.83
2023-05-06T10:41:52.408Z,20.83
2023-05-06T10:42:52.431Z,20.83
2023-05-06T10:43:52.572Z,20.84
2023-05-06T10:44:52.522Z,20.84
2023-05-06T10:45:52.642Z,20.83
2023-05-06T10:46:52.588Z,20.83
2023-05-06T10:47:52.736Z,20.83
2023-05-06T10:48:52.697Z,20.84
2023-05-06T10:49:52.751Z,20.83
2023-05-06T10:50:52.744Z,20.83
2023-05-06T10:51:52.779Z,20.82
2023-05-06T10:52:52.789Z,20.83
2023-05-06T10:53:52.842Z,20.82
2023-05-06T10:54:52.890Z,20.83
2023-05-06T10:55:52.911Z,20.82
2023-05-06T10:56:52.965Z,20.83
2023-05-06T10:57:52.965Z,20.82
2023-05-06T10:58:53.002Z,20.83
2023-05-06T10:59:53.071Z,20.83
2023-05-06T11:00:53.131Z,20.83
2023-05-06T11:01:53.130Z,20.83
2023-05-06T11:02:53.200Z,20.83
2023-05-06T11:03:53.584Z,20.83
2023-05-06T11:04:53.355Z,20.83
2023-05-06T11:05:53.266Z,20.83
2023-05-06T11:06:53.287Z,20.83
2023-05-06T11:07:53.310Z,20.84
2023-05-06T11:08:53.406Z,20.84
2023-05-06T11:09:53.398Z,20.84
2023-05-06T11:10:53.436Z,20.83
2023-05-06T11:11:53.430Z,20.84
2023-05-06T11:12:53.526Z,20.84
2023-05-06T11:13:53.501Z,20.84
2023-05-06T11:14:53.519Z,20.84
2023-05-06T11:15:53.580Z,20.84
2023-05-06T11:16:53.674Z,20.85
2023-05-06T11:17:53.722Z,20.85
2023-05-06T11:18:53.710Z,20.86
2023-05-06T11:19:53.716Z,20.86
2023-05-06T11:20:53.749Z,20.85
2023-05-06T11:21:53.787Z,20.86
2023-05-06T11:22:53.809Z,20.85
2023-05-06T11:23:53.888Z,20.86
2023-05-06T11:24:53.937Z,20.85
2023-05-06T11:25:53.987Z,20.86
2023-05-06T11:26:54.038Z,20.86
2023-05-06T11:27:54.072Z,20.86
2023-05-06T11:28:54.104Z,20.86
2023-05-06T11:29:54.181Z,20.86
2023-05-06T11:30:54.211Z,20.86
2023-05-06T11:31:54.286Z,20.86
2023-05-06T11:32:54.292Z,20.85
2023-05-06T11:33:54.313Z,20.86
2023-05-06T11:34:54.377Z,20.86
2023-05-06T11:35:54.395Z,20.86
2023-05-06T11:36:54.422Z,20.86
2023-05-06T11:37:54.503Z,20.86
2023-05-06T11:38:54.526Z,20.85
2023-05-06T11:39:54.552Z,20.85
2023-05-06T11:40:54.740Z,20.86
2023-05-06T11:41:54.655Z,20.86
2023-05-06T11:42:54.716Z,20.86
2023-05-06T11:43:54.783Z,20.86
2023-05-06T11:44:54.813Z,20.86
2023-05-06T11:45:54.901Z,20.87
2023-05-06T11:46:54.895Z,20.87
2023-05-06T11:47:54.957Z,20.87
2023-05-06T11:48:54.980Z,20.87
2023-05-06T11:49:55.000Z,20.89
2023-05-06T11:50:55.060Z,20.88
2023-05-06T11:51:55.126Z,20.89
2023-05-06T11:52:55.163Z,20.88
2023-05-06T11:53:55.207Z,20.88
2023-05-06T11:54:55.274Z,20.88
2023-05-06T11:55:55.276Z,20.88
2023-05-06T11:56:55.445Z,20.89
2023-05-06T11:57:55.396Z,20.89
2023-05-06T11:58:55.441Z,20.89
2023-05-06T11:59:55.482Z,20.91
2023-05-06T12:00:55.512Z,20.91
2023-05-06T12:01:55.581Z,20.92
2023-05-06T12:02:55.693Z,20.92
2023-05-06T12:03:55.877Z,20.91
2023-05-06T12:04:55.768Z,20.91
2023-05-06T12:05:55.815Z,20.92
2023-05-06T12:06:55.842Z,20.92
2023-05-06T12:07:55.880Z,20.92
2023-05-06T12:08:56.085Z,20.91
2023-05-06T12:09:55.969Z,20.91
2023-05-06T12:10:55.993Z,20.92
2023-05-06T12:11:56.036Z,20.92
2023-05-06T12:12:56.214Z,20.92
2023-05-06T12:13:56.167Z,20.92
2023-05-06T12:14:56.210Z,20.93
2023-05-06T12:15:56.279Z,20.93
2023-05-06T12:16:56.321Z,20.92
2023-05-06T12:17:56.372Z,20.93
2023-05-06T12:18:56.449Z,20.93
2023-05-06T12:19:56.453Z,20.93
2023-05-06T12:20:56.550Z,20.93
2023-05-06T12:21:56.563Z,20.93
2023-05-06T12:22:56.634Z,20.93
2023-05-06T12:23:56.767Z,20.93
2023-05-06T12:24:56.722Z,20.94
2023-05-06T12:25:56.774Z,20.93
2023-05-06T12:26:56.803Z,20.93
2023-05-06T12:27:58.006Z,20.93
2023-05-06T12:28:56.983Z,20.94
2023-05-06T12:29:56.950Z,20.94
2023-05-06T12:30:56.989Z,20.94
2023-05-06T12:31:57.087Z,20.94
2023-05-06T12:32:57.161Z,20.94
2023-05-06T12:33:58.095Z,20.93
2023-05-06T12:34:57.163Z,20.94
2023-05-06T12:35:57.170Z,20.94
2023-05-06T12:36:57.158Z,20.95
2023-05-06T12:37:57.151Z,20.94
2023-05-06T12:38:57.113Z,20.94
2023-05-06T12:40:07.816Z,20.94
2023-05-06T12:40:58.144Z,20.93
2023-05-06T12:41:57.118Z,20.93
2023-05-06T12:42:57.094Z,20.94
2023-05-06T12:43:57.082Z,20.94
2023-05-06T12:44:57.135Z,20.94
2023-05-06T12:45:57.838Z,20.94
2023-05-06T12:46:57.072Z,20.94
2023-05-06T12:47:57.080Z,20.95
2023-05-06T12:48:57.077Z,20.94
2023-05-06T12:49:57.071Z,20.94
2023-05-06T12:50:57.136Z,20.94
2023-05-06T12:51:57.182Z,20.94
2023-05-06T12:52:57.242Z,20.95